createdAt,value
2023-04-18T00:03:25.746Z,102615.28
2023-04-18T00:09:13.218Z,102605.28
2023-04-18T00:15:06.783Z,102615.31
2023-04-18T00:20:57.254Z,102608.03
2023-04-18T00:33:11.867Z,102615.78
2023-04-18T00:39:02.837Z,102596.63
2023-04-18T00:44:49.814Z,102604.66
2023-04-18T00:50:40.485Z,102615.00
2023-04-18T00:56:30.748Z,102617.03
2023-04-18T01:02:19.981Z,102610.31
2023-04-18T01:08:07.396Z,102605.81
2023-04-18T01:14:03.593Z,102605.03
2023-04-18T01:19:51.126Z,102599.69
2023-04-18T01:25:39.147Z,102608.34
2023-04-18T01:31:34.059Z,102593.59
2023-04-18T01:37:23.936Z,102585.09
2023-04-18T01:43:12.767Z,102579.25
2023-04-18T01:49:08.058Z,102571.72
2023-04-18T01:54:54.826Z,102564.94
2023-04-18T02:00:41.555Z,102555.94
2023-04-18T02:06:28.606Z,102562.53
2023-04-18T02:12:15.345Z,102567.44
2023-04-18T02:18:03.675Z,102558.41
2023-04-18T02:23:51.077Z,102572.56
2023-04-18T02:29:38.230Z,102570.84
2023-04-18T02:35:35.396Z,102574.53
2023-04-18T02:41:22.457Z,102571.22
2023-04-18T02:47:16.337Z,102563.47
2023-04-18T02:53:06.042Z,102559.38
2023-04-18T02:59:07.446Z,102564.50
2023-04-18T03:05:12.454Z,102559.81
2023-04-18T03:10:59.481Z,102554.59
2023-04-18T03:16:49.072Z,102560.91
2023-04-18T03:22:40.409Z,102552.81
2023-04-18T03:28:27.354Z,102548.41
2023-04-18T03:34:14.439Z,102540.47
2023-04-18T03:40:01.626Z,102534.75
2023-04-18T03:45:50.565Z,102545.16
2023-04-18T03:51:44.343Z,102549.03
2023-04-18T03:57:31.364Z,102542.25
2023-04-18T04:03:19.271Z,102538.75
2023-04-18T04:09:07.182Z,102545.94
2023-04-18T04:14:54.911Z,102539.16
2023-04-18T04:20:42.143Z,102542.16
2023-04-18T04:26:35.838Z,102541.94
2023-04-18T04:32:39.022Z,102527.41
2023-04-18T04:38:25.907Z,102530.09
2023-04-18T04:44:26.091Z,102525.22
2023-04-18T04:50:15.823Z,102522.53
2023-04-18T04:56:04.771Z,102525.47
2023-04-18T05:01:53.353Z,102519.22
2023-04-18T05:07:40.537Z,102526.03
2023-04-18T05:13:27.341Z,102523.34
2023-04-18T05:19:14.626Z,102538.91
2023-04-18T05:25:02.482Z,102530.44
2023-04-18T05:30:49.561Z,102534.88
2023-04-18T05:36:38.290Z,102525.13
2023-04-18T05:42:25.526Z,102539.56
2023-04-18T05:48:15.542Z,102533.06
2023-04-18T05:54:03.083Z,102536.94
2023-04-18T05:59:50.119Z,102542.19
2023-04-18T06:05:37.128Z,102544.19
2023-04-18T06:11:24.367Z,102540.47
2023-04-18T06:17:15.011Z,102543.28
2023-04-18T06:23:04.893Z,102541.94
2023-04-18T06:29:38.400Z,102535.44
2023-04-18T06:35:33.669Z,102521.03
2023-04-18T06:41:20.670Z,102534.75
2023-04-18T06:47:07.779Z,102539.81
2023-04-18T06:52:57.257Z,102532.63
2023-04-18T06:59:30.156Z,102534.19
2023-04-18T07:05:19.786Z,102530.44
2023-04-18T07:11:18.675Z,102520.50
2023-04-18T07:17:18.225Z,102521.16
2023-04-18T07:23:10.784Z,102522.59
2023-04-18T07:28:58.038Z,102497.44
2023-04-18T07:34:45.123Z,102477.00
2023-04-18T07:40:32.527Z,102485.13
2023-04-18T07:46:19.380Z,102480.25
2023-04-18T07:52:14.665Z,102469.09
2023-04-18T07:58:01.353Z,102474.84
2023-04-18T08:03:48.550Z,102473.34
2023-04-18T08:09:35.576Z,102466.75
2023-04-18T08:15:27.752Z,102450.38
2023-04-18T08:21:17.053Z,102454.56
2023-04-18T08:27:04.043Z,102437.78
2023-04-18T08:32:51.345Z,102413.16
2023-04-18T08:38:38.256Z,102434.75
2023-04-18T08:44:27.821Z,102414.06
2023-04-18T08:50:14.591Z,102414.97
2023-04-18T08:56:05.928Z,102418.06
2023-04-18T09:01:59.641Z,102396.72
2023-04-18T09:07:48.033Z,102407.25
2023-04-18T09:13:39.799Z,102391.81
2023-04-18T09:19:26.696Z,102378.28
2023-04-18T09:25:29.228Z,102395.34
2023-04-18T09:31:17.035Z,102404.03
2023-04-18T09:37:15.675Z,102395.53
2023-04-18T09:43:37.392Z,102405.56
2023-04-18T10:10:51.867Z,102408.09
2023-04-18T10:24:55.787Z,102383.81
2023-04-18T10:30:50.052Z,102387.31
2023-04-18T10:44:49.289Z,102389.09
2023-04-18T10:51:29.155Z,102381.50
2023-04-18T10:57:18.637Z,102384.56
2023-04-18T11:03:06.242Z,102378.91
2023-04-18T11:09:38.330Z,102368.47
2023-04-18T11:15:50.759Z,102377.69
2023-04-18T11:21:41.274Z,102374.38
2023-04-18T11:27:29.848Z,102378.75
2023-04-18T11:42:18.562Z,102366.88
2023-04-18T11:48:39.179Z,102345.06
2023-04-18T11:54:45.598Z,102338.97
2023-04-18T12:00:44.806Z,102329.09
2023-04-18T12:07:26.718Z,102337.81
2023-04-18T12:20:09.197Z,102319.19
2023-04-18T12:26:04.649Z,102323.09
2023-04-18T12:31:54.075Z,102305.28
2023-04-18T12:37:51.445Z,102322.47
2023-04-18T12:43:45.077Z,102325.09
2023-04-18T12:49:47.535Z,102307.34
2023-04-18T12:55:35.880Z,102330.59
2023-04-18T13:02:00.765Z,102314.69
2023-04-18T13:08:44.484Z,102305.97
2023-04-18T13:14:47.773Z,102313.34
2023-04-18T13:20:38.042Z,102319.44
2023-04-18T13:26:39.655Z,102310.25
2023-04-18T13:32:44.166Z,102306.34
2023-04-18T13:38:31.207Z,102295.50
2023-04-18T13:44:25.203Z,102297.22
2023-04-18T13:50:13.789Z,102310.38
2023-04-18T13:56:05.498Z,102289.75
2023-04-18T14:01:53.713Z,102293.31
2023-04-18T14:07:54.216Z,102286.88
2023-04-18T14:13:41.255Z,102299.00
2023-04-18T14:19:28.153Z,102281.16
2023-04-18T14:25:17.166Z,102275.69
2023-04-18T14:31:06.765Z,102278.06
2023-04-18T14:36:53.885Z,102265.91
2023-04-18T14:42:40.985Z,102255.41
2023-04-18T14:48:30.109Z,102262.47
2023-04-18T14:54:17.156Z,102259.44
2023-04-18T15:00:07.540Z,102262.38
2023-04-18T15:05:57.565Z,102265.00
2023-04-18T15:11:44.764Z,102272.38
2023-04-18T15:17:34.240Z,102262.38
2023-04-18T15:23:21.780Z,102252.00
2023-04-18T15:29:08.892Z,102247.84
2023-04-18T15:34:56.119Z,102247.72
2023-04-18T15:40:43.720Z,102250.69
2023-04-18T15:46:30.731Z,102271.19
2023-04-18T15:52:19.602Z,102262.81
2023-04-18T15:58:07.758Z,102248.34
2023-04-18T16:03:54.859Z,102240.72
2023-04-18T16:09:42.010Z,102244.50
2023-04-18T16:15:33.256Z,102230.38
2023-04-18T16:21:20.337Z,102249.00
2023-04-18T16:27:10.463Z,102246.34
2023-04-18T16:32:57.712Z,102261.28
2023-04-18T16:38:44.823Z,102254.88
2023-04-18T16:44:33.219Z,102250.50
2023-04-18T16:50:30.369Z,102254.06
2023-04-18T16:56:24.366Z,102258.78
2023-04-18T17:02:12.011Z,102260.38
2023-04-18T17:08:20.141Z,102253.97
2023-04-18T17:14:57.069Z,102265.91
2023-04-18T17:20:44.222Z,102265.16
2023-04-18T17:26:44.854Z,102249.34
2023-04-18T17:32:52.955Z,102243.63
2023-04-18T17:38:42.570Z,102234.53
2023-04-18T17:44:29.650Z,102243.94
2023-04-18T17:50:22.705Z,102252.59
2023-04-18T17:56:29.497Z,102246.00
2023-04-18T18:02:28.501Z,102250.25
2023-04-18T18:08:16.102Z,102260.16
2023-04-18T18:14:09.973Z,102260.22
2023-04-18T18:19:57.033Z,102270.63
2023-04-18T18:25:44.096Z,102278.91
2023-04-18T18:31:49.877Z,102267.13
2023-04-18T18:37:39.067Z,102258.72
2023-04-18T18:43:27.981Z,102253.41
2023-04-18T19:28:20.236Z,102295.03
2023-04-18T19:34:36.415Z,102294.63
2023-04-18T19:41:03.842Z,102304.41
2023-04-18T19:54:00.334Z,102311.88
2023-04-18T19:59:50.028Z,102297.13
2023-04-18T20:06:40.480Z,102301.75
2023-04-18T20:13:51.459Z,102296.69
2023-04-18T20:19:47.393Z,102301.88
2023-04-18T20:53:57.805Z,102278.84
2023-04-18T21:00:07.476Z,102285.16
2023-04-18T21:06:36.139Z,102275.97
2023-04-18T21:12:23.316Z,102288.84
2023-04-18T21:18:10.646Z,102299.66
2023-04-18T21:23:57.603Z,102304.94
2023-04-18T21:44:55.241Z,102297.00
2023-04-18T21:50:43.073Z,102302.88
2023-04-18T21:56:30.261Z,102307.28
2023-04-18T22:02:20.440Z,102306.22
2023-04-18T22:15:43.710Z,102308.16
2023-04-18T22:21:38.617Z,102314.59
2023-04-18T22:27:49.181Z,102318.88
2023-04-18T22:33:36.543Z,102319.56
2023-04-18T22:39:25.099Z,102319.94
2023-04-18T22:45:13.745Z,102314.28
2023-04-18T22:51:02.003Z,102319.56
2023-04-18T22:56:50.399Z,102310.16
2023-04-18T23:02:38.486Z,102306.78
2023-04-18T23:08:25.539Z,102303.81
2023-04-18T23:14:12.656Z,102307.94
2023-04-18T23:19:59.516Z,102301.72
2023-04-18T23:25:53.352Z,102299.06
2023-04-18T23:31:43.699Z,102305.50
2023-04-18T23:37:34.347Z,102302.28
2023-04-18T23:43:21.472Z,102296.84
2023-04-18T23:49:08.702Z,102298.94
2023-04-18T23:54:58.842Z,102294.19
